Terminal Aerodrome Forecast
Issued by NWS

Home | Current Version | Previous Version | Text Only | Print | Product List | Glossary On
Versions: 1 2 3 4 5 6 7 8 9 10 11 12 13 14 15 16 17 18 19 20 21 22 23 24 25
000
FTUS44 KFWD 260307 AAA
TAFGKY
TAF AMD
KGKY 260307Z 2603/2624 16017KT P6SM SCT300
     FM260500 18017KT P6SM OVC015
     FM261400 32017G27KT P6SM VCSH OVC022
     FM261800 32018G28KT P6SM BKN025
     FM262200 32018G28KT P6SM SCT025 BKN045=

USA.gov is the U.S. government's official web portal to all federal, state and local government web resources and services.